sensor_id;sensor_type;location;lat;lon;timestamp;temperature;humidity
8593;DHT22;4334;49.982;8.398;2023-04-15T00:01:17;4.40;99.90
8593;DHT22;4334;49.982;8.398;2023-04-15T00:03:44;8.00;99.90
8593;DHT22;4334;49.982;8.398;2023-04-15T00:06:11;4.40;99.90
8593;DHT22;4334;49.982;8.398;2023-04-15T00:08:40;4.30;99.90
8593;DHT22;4334;49.982;8.398;2023-04-15T00:11:08;4.20;99.90
8593;DHT22;4334;49.982;8.398;2023-04-15T00:13:37;4.20;99.90
8593;DHT22;4334;49.982;8.398;2023-04-15T00:16:05;4.20;99.90
8593;DHT22;4334;49.982;8.398;2023-04-15T00:18:31;4.10;99.90
8593;DHT22;4334;49.982;8.398;2023-04-15T00:20:58;4.10;99.90
8593;DHT22;4334;49.982;8.398;2023-04-15T00:23:25;4.20;99.90
8593;DHT22;4334;49.982;8.398;2023-04-15T00:25:53;4.20;99.90
8593;DHT22;4334;49.982;8.398;2023-04-15T00:28:21;4.20;99.90
8593;DHT22;4334;49.982;8.398;2023-04-15T00:30:47;6.90;99.90
8593;DHT22;4334;49.982;8.398;2023-04-15T00:33:14;4.10;99.90
8593;DHT22;4334;49.982;8.398;2023-04-15T00:35:42;4.10;99.90
8593;DHT22;4334;49.982;8.398;2023-04-15T00:38:09;4.00;99.90
8593;DHT22;4334;49.982;8.398;2023-04-15T00:40:36;5.10;99.90
8593;DHT22;4334;49.982;8.398;2023-04-15T00:43:04;4.00;99.90
8593;DHT22;4334;49.982;8.398;2023-04-15T00:45:31;4.00;99.90
8593;DHT22;4334;49.982;8.398;2023-04-15T00:47:58;4.00;99.90
8593;DHT22;4334;49.982;8.398;2023-04-15T00:50:25;4.20;99.90
8593;DHT22;4334;49.982;8.398;2023-04-15T00:52:52;4.20;99.90
8593;DHT22;4334;49.982;8.398;2023-04-15T00:55:19;4.10;99.90
8593;DHT22;4334;49.982;8.398;2023-04-15T00:57:46;4.10;99.90
8593;DHT22;4334;49.982;8.398;2023-04-15T01:00:14;4.10;99.90
8593;DHT22;4334;49.982;8.398;2023-04-15T01:02:41;4.10;99.90
8593;DHT22;4334;49.982;8.398;2023-04-15T01:05:11;4.00;99.90
8593;DHT22;4334;49.982;8.398;2023-04-15T01:07:38;4.10;99.90
8593;DHT22;4334;49.982;8.398;2023-04-15T01:10:05;5.10;99.90
8593;DHT22;4334;49.982;8.398;2023-04-15T01:12:36;4.00;99.90
8593;DHT22;4334;49.982;8.398;2023-04-15T01:15:05;3.90;99.90
8593;DHT22;4334;49.982;8.398;2023-04-15T01:17:34;4.00;99.90
8593;DHT22;4334;49.982;8.398;2023-04-15T01:20:00;6.60;99.90
8593;DHT22;4334;49.982;8.398;2023-04-15T01:22:29;3.80;99.90
8593;DHT22;4334;49.982;8.398;2023-04-15T01:25:00;3.70;99.90
8593;DHT22;4334;49.982;8.398;2023-04-15T01:27:30;4.10;99.90
8593;DHT22;4334;49.982;8.398;2023-04-15T01:29:57;4.00;99.90
8593;DHT22;4334;49.982;8.398;2023-04-15T01:32:24;4.10;99.90
8593;DHT22;4334;49.982;8.398;2023-04-15T01:34:51;4.20;99.90
8593;DHT22;4334;49.982;8.398;2023-04-15T01:37:18;5.60;99.90
8593;DHT22;4334;49.982;8.398;2023-04-15T01:39:45;4.40;99.90
8593;DHT22;4334;49.982;8.398;2023-04-15T01:42:12;4.30;99.90
8593;DHT22;4334;49.982;8.398;2023-04-15T01:44:40;4.30;99.90
8593;DHT22;4334;49.982;8.398;2023-04-15T01:47:06;4.40;99.90
8593;DHT22;4334;49.982;8.398;2023-04-15T01:49:33;4.30;99.90
8593;DHT22;4334;49.982;8.398;2023-04-15T01:52:00;4.40;99.90
8593;DHT22;4334;49.982;8.398;2023-04-15T01:54:27;4.50;99.90
8593;DHT22;4334;49.982;8.398;2023-04-15T01:56:54;4.50;99.90
8593;DHT22;4334;49.982;8.398;2023-04-15T01:59:21;4.50;99.90
8593;DHT22;4334;49.982;8.398;2023-04-15T02:01:49;4.30;99.90
8593;DHT22;4334;49.982;8.398;2023-04-15T02:04:16;4.30;99.90
8593;DHT22;4334;49.982;8.398;2023-04-15T02:06:43;4.20;99.90
8593;DHT22;4334;49.982;8.398;2023-04-15T02:09:10;4.20;99.90
8593;DHT22;4334;49.982;8.398;2023-04-15T02:11:37;4.30;99.90
8593;DHT22;4334;49.982;8.398;2023-04-15T02:14:04;4.30;99.90
8593;DHT22;4334;49.982;8.398;2023-04-15T02:16:31;4.30;99.90
8593;DHT22;4334;49.982;8.398;2023-04-15T02:19:00;4.20;99.90
8593;DHT22;4334;49.982;8.398;2023-04-15T02:21:27;4.30;99.90
8593;DHT22;4334;49.982;8.398;2023-04-15T02:23:54;4.30;99.90
8593;DHT22;4334;49.982;8.398;2023-04-15T02:26:21;4.30;99.90
8593;DHT22;4334;49.982;8.398;2023-04-15T02:28:50;4.60;99.90
8593;DHT22;4334;49.982;8.398;2023-04-15T02:31:17;4.20;99.90
8593;DHT22;4334;49.982;8.398;2023-04-15T02:33:43;4.20;99.90
8593;DHT22;4334;49.982;8.398;2023-04-15T02:36:12;4.10;99.90
8593;DHT22;4334;49.982;8.398;2023-04-15T02:38:39;5.80;99.90
8593;DHT22;4334;49.982;8.398;2023-04-15T02:41:08;4.00;99.90
8593;DHT22;4334;49.982;8.398;2023-04-15T02:43:35;4.00;99.90
8593;DHT22;4334;49.982;8.398;2023-04-15T02:46:02;3.90;99.90
8593;DHT22;4334;49.982;8.398;2023-04-15T02:48:29;3.90;99.90
8593;DHT22;4334;49.982;8.398;2023-04-15T02:51:11;3.90;99.90
8593;DHT22;4334;49.982;8.398;2023-04-15T02:53:38;4.00;99.90
8593;DHT22;4334;49.982;8.398;2023-04-15T02:56:06;4.00;99.90
8593;DHT22;4334;49.982;8.398;2023-04-15T02:58:34;4.00;99.90
8593;DHT22;4334;49.982;8.398;2023-04-15T03:01:00;4.10;99.90
8593;DHT22;4334;49.982;8.398;2023-04-15T03:03:27;4.10;99.90
8593;DHT22;4334;49.982;8.398;2023-04-15T03:05:54;0.70;99.90
8593;DHT22;4334;49.982;8.398;2023-04-15T03:08:22;4.50;99.90
8593;DHT22;4334;49.982;8.398;2023-04-15T03:10:49;3.90;99.90
8593;DHT22;4334;49.982;8.398;2023-04-15T03:13:17;3.40;99.90
8593;DHT22;4334;49.982;8.398;2023-04-15T03:15:45;3.90;99.90
8593;DHT22;4334;49.982;8.398;2023-04-15T03:18:12;3.80;99.90
8593;DHT22;4334;49.982;8.398;2023-04-15T03:20:39;3.70;99.90
8593;DHT22;4334;49.982;8.398;2023-04-15T03:23:06;3.70;99.90
8593;DHT22;4334;49.982;8.398;2023-04-15T03:25:34;3.60;99.90
8593;DHT22;4334;49.982;8.398;2023-04-15T03:28:02;3.60;99.90
8593;DHT22;4334;49.982;8.398;2023-04-15T03:30:29;3.60;99.90
8593;DHT22;4334;49.982;8.398;2023-04-15T03:32:56;5.50;99.90
8593;DHT22;4334;49.982;8.398;2023-04-15T03:35:23;3.50;99.90
8593;DHT22;4334;49.982;8.398;2023-04-15T03:37:50;3.50;99.90
8593;DHT22;4334;49.982;8.398;2023-04-15T03:40:17;5.30;99.90
8593;DHT22;4334;49.982;8.398;2023-04-15T03:42:45;6.30;99.90
8593;DHT22;4334;49.982;8.398;2023-04-15T03:45:11;3.50;99.90
8593;DHT22;4334;49.982;8.398;2023-04-15T03:47:38;3.40;99.90
8593;DHT22;4334;49.982;8.398;2023-04-15T03:50:06;3.40;99.90
8593;DHT22;4334;49.982;8.398;2023-04-15T03:52:33;3.40;99.90
8593;DHT22;4334;49.982;8.398;2023-04-15T03:55:00;3.20;99.90
8593;DHT22;4334;49.982;8.398;2023-04-15T03:57:27;3.30;99.90
8593;DHT22;4334;49.982;8.398;2023-04-15T03:59:55;3.20;99.90
8593;DHT22;4334;49.982;8.398;2023-04-15T04:02:21;3.20;99.90
8593;DHT22;4334;49.982;8.398;2023-04-15T04:04:48;3.10;99.90
8593;DHT22;4334;49.982;8.398;2023-04-15T04:07:15;3.20;99.90
8593;DHT22;4334;49.982;8.398;2023-04-15T04:09:42;3.30;99.90
8593;DHT22;4334;49.982;8.398;2023-04-15T04:12:09;3.40;99.90
8593;DHT22;4334;49.982;8.398;2023-04-15T04:14:36;4.30;99.90
8593;DHT22;4334;49.982;8.398;2023-04-15T04:17:04;3.40;99.90
8593;DHT22;4334;49.982;8.398;2023-04-15T04:19:31;6.90;99.90
8593;DHT22;4334;49.982;8.398;2023-04-15T04:21:58;3.50;99.90
8593;DHT22;4334;49.982;8.398;2023-04-15T04:24:25;3.60;99.90
8593;DHT22;4334;49.982;8.398;2023-04-15T04:26:51;3.70;99.90
8593;DHT22;4334;49.982;8.398;2023-04-15T04:29:21;3.70;99.90
8593;DHT22;4334;49.982;8.398;2023-04-15T04:31:53;3.90;99.90
8593;DHT22;4334;49.982;8.398;2023-04-15T04:34:21;3.90;99.90
8593;DHT22;4334;49.982;8.398;2023-04-15T04:36:48;4.20;99.90
8593;DHT22;4334;49.982;8.398;2023-04-15T04:39:15;4.30;99.90
8593;DHT22;4334;49.982;8.398;2023-04-15T04:41:42;4.40;99.90
8593;DHT22;4334;49.982;8.398;2023-04-15T04:44:10;4.30;99.90
8593;DHT22;4334;49.982;8.398;2023-04-15T04:46:37;5.90;99.90
8593;DHT22;4334;49.982;8.398;2023-04-15T04:49:04;4.20;99.90
8593;DHT22;4334;49.982;8.398;2023-04-15T04:51:32;5.40;99.90
8593;DHT22;4334;49.982;8.398;2023-04-15T04:53:58;4.40;99.90
8593;DHT22;4334;49.982;8.398;2023-04-15T04:56:25;4.40;99.90
8593;DHT22;4334;49.982;8.398;2023-04-15T04:58:52;4.40;99.90
8593;DHT22;4334;49.982;8.398;2023-04-15T05:01:19;4.50;99.90
8593;DHT22;4334;49.982;8.398;2023-04-15T05:03:46;4.40;99.90
8593;DHT22;4334;49.982;8.398;2023-04-15T05:06:12;4.50;99.90
8593;DHT22;4334;49.982;8.398;2023-04-15T05:08:40;4.40;99.90
8593;DHT22;4334;49.982;8.398;2023-04-15T05:11:07;4.40;99.90
8593;DHT22;4334;49.982;8.398;2023-04-15T05:13:34;4.30;99.90
8593;DHT22;4334;49.982;8.398;2023-04-15T05:16:03;4.30;99.90
8593;DHT22;4334;49.982;8.398;2023-04-15T05:18:30;4.40;99.90
8593;DHT22;4334;49.982;8.398;2023-04-15T05:20:57;4.30;99.90
8593;DHT22;4334;49.982;8.398;2023-04-15T05:23:24;3.70;99.90
8593;DHT22;4334;49.982;8.398;2023-04-15T05:25:53;7.70;99.90
8593;DHT22;4334;49.982;8.398;2023-04-15T05:28:20;4.40;99.90
8593;DHT22;4334;49.982;8.398;2023-04-15T05:30:46;4.50;99.90
8593;DHT22;4334;49.982;8.398;2023-04-15T05:33:13;7.30;99.90
8593;DHT22;4334;49.982;8.398;2023-04-15T05:35:40;4.60;99.90
8593;DHT22;4334;49.982;8.398;2023-04-15T05:38:07;4.60;99.90
8593;DHT22;4334;49.982;8.398;2023-04-15T05:40:34;4.60;99.90
8593;DHT22;4334;49.982;8.398;2023-04-15T05:43:02;4.60;99.90
8593;DHT22;4334;49.982;8.398;2023-04-15T05:45:28;4.80;99.90
8593;DHT22;4334;49.982;8.398;2023-04-15T05:47:55;4.90;99.90
8593;DHT22;4334;49.982;8.398;2023-04-15T05:50:22;4.90;99.90
8593;DHT22;4334;49.982;8.398;2023-04-15T05:52:48;4.90;99.90
8593;DHT22;4334;49.982;8.398;2023-04-15T05:55:15;7.50;99.90
8593;DHT22;4334;49.982;8.398;2023-04-15T05:57:42;4.80;99.90
8593;DHT22;4334;49.982;8.398;2023-04-15T06:00:13;4.80;99.90
8593;DHT22;4334;49.982;8.398;2023-04-15T06:02:41;4.80;99.90
8593;DHT22;4334;49.982;8.398;2023-04-15T06:05:10;4.90;99.90
8593;DHT22;4334;49.982;8.398;2023-04-15T06:07:37;5.00;99.90
8593;DHT22;4334;49.982;8.398;2023-04-15T06:10:06;5.40;99.90
8593;DHT22;4334;49.982;8.398;2023-04-15T06:12:40;5.10;99.90
8593;DHT22;4334;49.982;8.398;2023-04-15T06:15:07;5.20;99.90
8593;DHT22;4334;49.982;8.398;2023-04-15T06:17:38;5.30;99.90
8593;DHT22;4334;49.982;8.398;2023-04-15T06:20:06;5.40;99.90
8593;DHT22;4334;49.982;8.398;2023-04-15T06:22:33;7.00;99.90
8593;DHT22;4334;49.982;8.398;2023-04-15T06:25:05;5.90;99.90
8593;DHT22;4334;49.982;8.398;2023-04-15T06:27:36;6.40;99.90
8593;DHT22;4334;49.982;8.398;2023-04-15T06:30:03;6.90;99.90
8593;DHT22;4334;49.982;8.398;2023-04-15T06:32:31;7.50;99.90
8593;DHT22;4334;49.982;8.398;2023-04-15T06:34:59;9.00;99.90
8593;DHT22;4334;49.982;8.398;2023-04-15T06:37:27;8.20;99.90
8593;DHT22;4334;49.982;8.398;2023-04-15T06:39:53;8.70;99.90
8593;DHT22;4334;49.982;8.398;2023-04-15T06:42:20;8.30;99.90
8593;DHT22;4334;49.982;8.398;2023-04-15T06:44:47;8.50;99.90
8593;DHT22;4334;49.982;8.398;2023-04-15T06:47:14;8.80;99.90
8593;DHT22;4334;49.982;8.398;2023-04-15T06:49:40;9.20;99.90
8593;DHT22;4334;49.982;8.398;2023-04-15T06:52:10;9.30;99.90
8593;DHT22;4334;49.982;8.398;2023-04-15T06:54:37;9.50;99.90
8593;DHT22;4334;49.982;8.398;2023-04-15T06:57:04;9.70;99.90
8593;DHT22;4334;49.982;8.398;2023-04-15T06:59:31;10.00;99.90
8593;DHT22;4334;49.982;8.398;2023-04-15T07:01:58;10.30;99.90
8593;DHT22;4334;49.982;8.398;2023-04-15T07:04:25;10.80;99.90
8593;DHT22;4334;49.982;8.398;2023-04-15T07:06:52;10.90;99.90
8593;DHT22;4334;49.982;8.398;2023-04-15T07:09:21;11.30;99.90
8593;DHT22;4334;49.982;8.398;2023-04-15T07:11:48;11.50;99.90
8593;DHT22;4334;49.982;8.398;2023-04-15T07:14:16;11.40;99.90
8593;DHT22;4334;49.982;8.398;2023-04-15T07:16:42;11.60;99.90
8593;DHT22;4334;49.982;8.398;2023-04-15T07:19:09;11.90;99.90
8593;DHT22;4334;49.982;8.398;2023-04-15T07:21:36;13.60;99.90
8593;DHT22;4334;49.982;8.398;2023-04-15T07:24:03;12.10;99.90
8593;DHT22;4334;49.982;8.398;2023-04-15T07:26:31;11.70;99.90
8593;DHT22;4334;49.982;8.398;2023-04-15T07:28:58;11.80;99.90
8593;DHT22;4334;49.982;8.398;2023-04-15T07:31:25;12.00;99.90
8593;DHT22;4334;49.982;8.398;2023-04-15T07:33:51;11.80;99.90
8593;DHT22;4334;49.982;8.398;2023-04-15T07:36:18;14.80;99.90
8593;DHT22;4334;49.982;8.398;2023-04-15T07:38:45;12.30;99.90
8593;DHT22;4334;49.982;8.398;2023-04-15T07:41:12;14.40;99.90
8593;DHT22;4334;49.982;8.398;2023-04-15T07:43:41;13.50;99.90
8593;DHT22;4334;49.982;8.398;2023-04-15T07:46:09;13.40;99.90
8593;DHT22;4334;49.982;8.398;2023-04-15T07:48:35;15.10;99.90
8593;DHT22;4334;49.982;8.398;2023-04-15T07:51:02;14.00;99.90
8593;DHT22;4334;49.982;8.398;2023-04-15T07:53:29;14.00;99.90
8593;DHT22;4334;49.982;8.398;2023-04-15T07:55:58;13.60;99.90
8593;DHT22;4334;49.982;8.398;2023-04-15T07:58:25;13.50;99.90
8593;DHT22;4334;49.982;8.398;2023-04-15T08:00:53;13.50;99.90
8593;DHT22;4334;49.982;8.398;2023-04-15T08:03:20;14.30;99.90
8593;DHT22;4334;49.982;8.398;2023-04-15T08:05:48;14.70;99.90
8593;DHT22;4334;49.982;8.398;2023-04-15T08:08:14;14.80;99.90
8593;DHT22;4334;49.982;8.398;2023-04-15T08:10:41;14.10;99.90
8593;DHT22;4334;49.982;8.398;2023-04-15T08:13:08;14.10;99.90
8593;DHT22;4334;49.982;8.398;2023-04-15T08:15:35;14.50;99.90
8593;DHT22;4334;49.982;8.398;2023-04-15T08:18:03;15.00;99.90
8593;DHT22;4334;49.982;8.398;2023-04-15T08:20:30;14.70;99.90
8593;DHT22;4334;49.982;8.398;2023-04-15T08:22:57;14.10;99.90
8593;DHT22;4334;49.982;8.398;2023-04-15T08:25:24;14.90;99.90
8593;DHT22;4334;49.982;8.398;2023-04-15T08:27:53;15.90;99.90
8593;DHT22;4334;49.982;8.398;2023-04-15T08:30:20;19.70;99.90
8593;DHT22;4334;49.982;8.398;2023-04-15T08:32:48;15.30;99.90
8593;DHT22;4334;49.982;8.398;2023-04-15T08:35:16;15.80;99.90
8593;DHT22;4334;49.982;8.398;2023-04-15T08:37:43;16.20;99.90
8593;DHT22;4334;49.982;8.398;2023-04-15T08:40:13;16.80;99.90
8593;DHT22;4334;49.982;8.398;2023-04-15T08:42:43;16.50;99.90
8593;DHT22;4334;49.982;8.398;2023-04-15T08:45:11;17.20;99.90
8593;DHT22;4334;49.982;8.398;2023-04-15T08:47:38;18.60;99.90
8593;DHT22;4334;49.982;8.398;2023-04-15T08:50:08;16.00;99.90
8593;DHT22;4334;49.982;8.398;2023-04-15T08:52:39;15.90;99.90
8593;DHT22;4334;49.982;8.398;2023-04-15T08:55:15;15.50;99.90
8593;DHT22;4334;49.982;8.398;2023-04-15T08:57:42;15.80;99.90
8593;DHT22;4334;49.982;8.398;2023-04-15T09:00:12;16.00;99.90
8593;DHT22;4334;49.982;8.398;2023-04-15T09:02:40;16.90;99.90
8593;DHT22;4334;49.982;8.398;2023-04-15T09:05:07;17.20;99.90
8593;DHT22;4334;49.982;8.398;2023-04-15T09:07:38;16.60;99.90
8593;DHT22;4334;49.982;8.398;2023-04-15T09:10:07;16.10;99.90
8593;DHT22;4334;49.982;8.398;2023-04-15T09:12:34;16.70;99.90
8593;DHT22;4334;49.982;8.398;2023-04-15T09:15:01;17.20;99.90
8593;DHT22;4334;49.982;8.398;2023-04-15T09:17:32;17.70;99.90
8593;DHT22;4334;49.982;8.398;2023-04-15T09:20:09;17.20;99.90
8593;DHT22;4334;49.982;8.398;2023-04-15T09:22:41;16.40;99.90
8593;DHT22;4334;49.982;8.398;2023-04-15T09:25:25;15.70;99.90
8593;DHT22;4334;49.982;8.398;2023-04-15T09:27:53;15.80;99.90
8593;DHT22;4334;49.982;8.398;2023-04-15T09:30:21;15.50;99.90
8593;DHT22;4334;49.982;8.398;2023-04-15T09:32:49;15.30;99.90
8593;DHT22;4334;49.982;8.398;2023-04-15T09:35:16;15.40;99.90
8593;DHT22;4334;49.982;8.398;2023-04-15T09:37:45;15.20;99.90
8593;DHT22;4334;49.982;8.398;2023-04-15T09:40:12;15.40;99.90
8593;DHT22;4334;49.982;8.398;2023-04-15T09:42:53;15.70;99.90
8593;DHT22;4334;49.982;8.398;2023-04-15T09:45:21;16.10;99.90
8593;DHT22;4334;49.982;8.398;2023-04-15T09:47:48;15.90;99.90
8593;DHT22;4334;49.982;8.398;2023-04-15T09:50:15;15.90;99.90
8593;DHT22;4334;49.982;8.398;2023-04-15T09:52:43;15.90;99.90
8593;DHT22;4334;49.982;8.398;2023-04-15T09:55:13;16.30;99.90
8593;DHT22;4334;49.982;8.398;2023-04-15T09:57:40;16.40;99.90
8593;DHT22;4334;49.982;8.398;2023-04-15T10:00:23;16.40;99.90
8593;DHT22;4334;49.982;8.398;2023-04-15T10:02:51;16.40;99.90
8593;DHT22;4334;49.982;8.398;2023-04-15T10:05:17;16.50;99.90
8593;DHT22;4334;49.982;8.398;2023-04-15T10:07:45;17.00;99.90
8593;DHT22;4334;49.982;8.398;2023-04-15T10:10:14;16.90;99.90
8593;DHT22;4334;49.982;8.398;2023-04-15T10:12:41;16.70;99.10
8593;DHT22;4334;49.982;8.398;2023-04-15T10:15:14;16.70;95.60
8593;DHT22;4334;49.982;8.398;2023-04-15T10:17:43;16.40;96.30
8593;DHT22;4334;49.982;8.398;2023-04-15T10:20:11;16.30;96.20
8593;DHT22;4334;49.982;8.398;2023-04-15T10:22:39;16.00;96.60
8593;DHT22;4334;49.982;8.398;2023-04-15T10:25:08;19.10;97.40
8593;DHT22;4334;49.982;8.398;2023-04-15T10:27:40;16.50;95.80
8593;DHT22;4334;49.982;8.398;2023-04-15T10:30:08;16.60;93.00
8593;DHT22;4334;49.982;8.398;2023-04-15T10:32:36;16.80;90.90
8593;DHT22;4334;49.982;8.398;2023-04-15T10:35:05;16.40;90.40
8593;DHT22;4334;49.982;8.398;2023-04-15T10:37:35;16.20;88.40
8593;DHT22;4334;49.982;8.398;2023-04-15T10:40:23;15.80;89.30
8593;DHT22;4334;49.982;8.398;2023-04-15T10:42:52;15.80;90.60
8593;DHT22;4334;49.982;8.398;2023-04-15T10:45:19;15.90;89.50
8593;DHT22;4334;49.982;8.398;2023-04-15T10:47:51;15.90;90.30
8593;DHT22;4334;49.982;8.398;2023-04-15T10:50:19;15.90;90.50
8593;DHT22;4334;49.982;8.398;2023-04-15T10:52:45;16.10;87.60
8593;DHT22;4334;49.982;8.398;2023-04-15T10:55:19;15.70;86.10
8593;DHT22;4334;49.982;8.398;2023-04-15T10:57:46;17.20;90.00
8593;DHT22;4334;49.982;8.398;2023-04-15T11:00:18;15.30;89.20
8593;DHT22;4334;49.982;8.398;2023-04-15T11:02:48;15.20;87.70
8593;DHT22;4334;49.982;8.398;2023-04-15T11:05:18;15.20;88.70
8593;DHT22;4334;49.982;8.398;2023-04-15T11:07:53;15.00;88.40
8593;DHT22;4334;49.982;8.398;2023-04-15T11:10:51;15.10;88.70
8593;DHT22;4334;49.982;8.398;2023-04-15T11:13:27;15.00;88.30
8593;DHT22;4334;49.982;8.398;2023-04-15T11:15:58;18.20;91.10
8593;DHT22;4334;49.982;8.398;2023-04-15T11:18:28;15.40;89.20
8593;DHT22;4334;49.982;8.398;2023-04-15T11:20:57;19.20;89.20
8593;DHT22;4334;49.982;8.398;2023-04-15T11:23:28;17.10;84.80
8593;DHT22;4334;49.982;8.398;2023-04-15T11:25:55;17.50;85.00
8593;DHT22;4334;49.982;8.398;2023-04-15T11:28:25;17.30;82.30
8593;DHT22;4334;49.982;8.398;2023-04-15T11:30:52;17.00;81.50
8593;DHT22;4334;49.982;8.398;2023-04-15T11:33:22;16.60;82.00
8593;DHT22;4334;49.982;8.398;2023-04-15T11:35:49;16.60;84.60
8593;DHT22;4334;49.982;8.398;2023-04-15T11:38:16;16.50;84.00
8593;DHT22;4334;49.982;8.398;2023-04-15T11:40:43;16.30;84.50
8593;DHT22;4334;49.982;8.398;2023-04-15T11:43:11;16.40;87.50
8593;DHT22;4334;49.982;8.398;2023-04-15T11:45:48;16.20;85.70
8593;DHT22;4334;49.982;8.398;2023-04-15T11:48:16;16.10;86.10
8593;DHT22;4334;49.982;8.398;2023-04-15T11:50:44;16.30;87.30
8593;DHT22;4334;49.982;8.398;2023-04-15T11:53:12;16.10;88.20
8593;DHT22;4334;49.982;8.398;2023-04-15T11:55:41;16.10;90.20
8593;DHT22;4334;49.982;8.398;2023-04-15T11:58:11;16.30;91.20
8593;DHT22;4334;49.982;8.398;2023-04-15T12:00:39;16.20;91.70
8593;DHT22;4334;49.982;8.398;2023-04-15T12:03:13;16.20;92.80
8593;DHT22;4334;49.982;8.398;2023-04-15T12:06:03;16.20;93.80
8593;DHT22;4334;49.982;8.398;2023-04-15T12:11:46;15.90;93.20
8593;DHT22;4334;49.982;8.398;2023-04-15T12:14:23;15.60;94.60
8593;DHT22;4334;49.982;8.398;2023-04-15T12:16:52;15.40;95.50
8593;DHT22;4334;49.982;8.398;2023-04-15T12:19:23;15.60;95.40
8593;DHT22;4334;49.982;8.398;2023-04-15T12:21:56;15.90;96.30
8593;DHT22;4334;49.982;8.398;2023-04-15T12:24:23;15.90;96.00
8593;DHT22;4334;49.982;8.398;2023-04-15T12:26:51;15.80;96.00
8593;DHT22;4334;49.982;8.398;2023-04-15T12:29:19;16.40;95.10
8593;DHT22;4334;49.982;8.398;2023-04-15T12:31:48;16.60;95.50
8593;DHT22;4334;49.982;8.398;2023-04-15T12:34:16;16.90;96.70
8593;DHT22;4334;49.982;8.398;2023-04-15T12:36:43;16.80;96.40
8593;DHT22;4334;49.982;8.398;2023-04-15T12:39:12;16.40;98.50
8593;DHT22;4334;49.982;8.398;2023-04-15T12:41:38;15.70;99.90
8593;DHT22;4334;49.982;8.398;2023-04-15T12:44:06;15.70;99.90
8593;DHT22;4334;49.982;8.398;2023-04-15T12:46:33;15.60;99.90
8593;DHT22;4334;49.982;8.398;2023-04-15T12:49:00;14.90;99.90
8593;DHT22;4334;49.982;8.398;2023-04-15T12:51:27;15.60;99.90
8593;DHT22;4334;49.982;8.398;2023-04-15T12:53:54;15.90;99.90
8593;DHT22;4334;49.982;8.398;2023-04-15T12:56:22;15.50;99.90
8593;DHT22;4334;49.982;8.398;2023-04-15T12:58:48;15.50;99.90
8593;DHT22;4334;49.982;8.398;2023-04-15T13:01:16;15.60;99.90
8593;DHT22;4334;49.982;8.398;2023-04-15T13:03:43;15.70;99.90
8593;DHT22;4334;49.982;8.398;2023-04-15T13:06:10;15.90;99.90
8593;DHT22;4334;49.982;8.398;2023-04-15T13:08:36;15.50;99.90
8593;DHT22;4334;49.982;8.398;2023-04-15T13:11:03;15.20;99.90
8593;DHT22;4334;49.982;8.398;2023-04-15T13:13:32;14.90;99.90
8593;DHT22;4334;49.982;8.398;2023-04-15T13:15:58;14.60;99.90
8593;DHT22;4334;49.982;8.398;2023-04-15T13:18:26;14.50;99.90
8593;DHT22;4334;49.982;8.398;2023-04-15T13:20:53;14.50;99.90
8593;DHT22;4334;49.982;8.398;2023-04-15T13:23:20;14.20;99.90
8593;DHT22;4334;49.982;8.398;2023-04-15T13:25:47;13.80;99.90
8593;DHT22;4334;49.982;8.398;2023-04-15T13:28:13;14.10;99.90
8593;DHT22;4334;49.982;8.398;2023-04-15T13:30:42;14.70;99.90
8593;DHT22;4334;49.982;8.398;2023-04-15T13:33:11;13.20;99.90
8593;DHT22;4334;49.982;8.398;2023-04-15T13:35:38;13.20;99.90
8593;DHT22;4334;49.982;8.398;2023-04-15T13:38:05;13.20;99.90
8593;DHT22;4334;49.982;8.398;2023-04-15T13:40:32;13.10;99.90
8593;DHT22;4334;49.982;8.398;2023-04-15T13:42:58;14.40;99.90
8593;DHT22;4334;49.982;8.398;2023-04-15T13:45:26;12.90;99.90
8593;DHT22;4334;49.982;8.398;2023-04-15T13:47:54;13.10;99.90
8593;DHT22;4334;49.982;8.398;2023-04-15T13:50:21;16.10;99.90
8593;DHT22;4334;49.982;8.398;2023-04-15T13:52:48;12.70;99.90
8593;DHT22;4334;49.982;8.398;2023-04-15T13:55:15;12.60;99.90
8593;DHT22;4334;49.982;8.398;2023-04-15T13:57:42;12.50;99.90
8593;DHT22;4334;49.982;8.398;2023-04-15T14:00:10;12.50;99.90
8593;DHT22;4334;49.982;8.398;2023-04-15T14:02:38;12.50;99.90
8593;DHT22;4334;49.982;8.398;2023-04-15T14:05:08;12.30;99.90
8593;DHT22;4334;49.982;8.398;2023-04-15T14:07:35;11.10;99.90
8593;DHT22;4334;49.982;8.398;2023-04-15T14:10:02;12.30;99.90
8593;DHT22;4334;49.982;8.398;2023-04-15T14:12:29;12.30;99.90
8593;DHT22;4334;49.982;8.398;2023-04-15T14:14:56;12.20;99.90
8593;DHT22;4334;49.982;8.398;2023-04-15T14:17:23;12.10;99.90
8593;DHT22;4334;49.982;8.398;2023-04-15T14:19:49;13.30;99.90
8593;DHT22;4334;49.982;8.398;2023-04-15T14:22:18;11.80;99.90
8593;DHT22;4334;49.982;8.398;2023-04-15T14:24:44;11.80;99.90
8593;DHT22;4334;49.982;8.398;2023-04-15T14:27:13;15.20;99.90
8593;DHT22;4334;49.982;8.398;2023-04-15T14:29:40;11.90;99.90
8593;DHT22;4334;49.982;8.398;2023-04-15T14:32:07;11.70;99.90
8593;DHT22;4334;49.982;8.398;2023-04-15T14:34:34;11.60;99.90
8593;DHT22;4334;49.982;8.398;2023-04-15T14:37:01;11.60;99.90
8593;DHT22;4334;49.982;8.398;2023-04-15T14:39:30;11.80;99.90
8593;DHT22;4334;49.982;8.398;2023-04-15T14:41:57;14.30;99.90
8593;DHT22;4334;49.982;8.398;2023-04-15T14:44:24;11.70;99.90
8593;DHT22;4334;49.982;8.398;2023-04-15T14:46:51;11.60;99.90
8593;DHT22;4334;49.982;8.398;2023-04-15T14:49:18;12.00;99.90
8593;DHT22;4334;49.982;8.398;2023-04-15T14:51:45;11.30;99.90
8593;DHT22;4334;49.982;8.398;2023-04-15T14:54:12;14.90;99.90
8593;DHT22;4334;49.982;8.398;2023-04-15T14:56:40;11.30;99.90
8593;DHT22;4334;49.982;8.398;2023-04-15T14:59:07;11.30;99.90
8593;DHT22;4334;49.982;8.398;2023-04-15T15:01:33;11.20;99.90
8593;DHT22;4334;49.982;8.398;2023-04-15T15:04:00;11.20;99.90
8593;DHT22;4334;49.982;8.398;2023-04-15T15:06:27;11.10;99.90
8593;DHT22;4334;49.982;8.398;2023-04-15T15:08:54;11.00;99.90
8593;DHT22;4334;49.982;8.398;2023-04-15T15:11:20;11.00;99.90
8593;DHT22;4334;49.982;8.398;2023-04-15T15:13:48;10.90;99.90
8593;DHT22;4334;49.982;8.398;2023-04-15T15:16:15;10.80;99.90
8593;DHT22;4334;49.982;8.398;2023-04-15T15:18:43;12.70;99.90
8593;DHT22;4334;49.982;8.398;2023-04-15T15:21:10;14.90;99.90
8593;DHT22;4334;49.982;8.398;2023-04-15T15:23:37;10.60;99.90
8593;DHT22;4334;49.982;8.398;2023-04-15T15:26:05;10.60;99.90
8593;DHT22;4334;49.982;8.398;2023-04-15T15:28:33;10.50;99.90
8593;DHT22;4334;49.982;8.398;2023-04-15T15:31:01;10.50;99.90
8593;DHT22;4334;49.982;8.398;2023-04-15T15:33:28;10.60;99.90
8593;DHT22;4334;49.982;8.398;2023-04-15T15:35:56;14.10;99.90
8593;DHT22;4334;49.982;8.398;2023-04-15T15:38:23;10.60;99.90
8593;DHT22;4334;49.982;8.398;2023-04-15T15:40:50;13.10;99.90
8593;DHT22;4334;49.982;8.398;2023-04-15T15:43:17;10.60;99.90
8593;DHT22;4334;49.982;8.398;2023-04-15T15:45:44;12.90;99.90
8593;DHT22;4334;49.982;8.398;2023-04-15T15:48:12;10.50;99.90
8593;DHT22;4334;49.982;8.398;2023-04-15T15:50:39;10.50;99.90
8593;DHT22;4334;49.982;8.398;2023-04-15T15:53:06;10.50;99.90
8593;DHT22;4334;49.982;8.398;2023-04-15T15:55:33;10.40;99.90
8593;DHT22;4334;49.982;8.398;2023-04-15T15:57:59;10.30;99.90
8593;DHT22;4334;49.982;8.398;2023-04-15T16:00:26;12.60;99.90
8593;DHT22;4334;49.982;8.398;2023-04-15T16:02:54;10.30;99.90
8593;DHT22;4334;49.982;8.398;2023-04-15T16:05:23;10.30;99.90
8593;DHT22;4334;49.982;8.398;2023-04-15T16:07:50;10.50;99.90
8593;DHT22;4334;49.982;8.398;2023-04-15T16:10:17;11.20;99.90
8593;DHT22;4334;49.982;8.398;2023-04-15T16:12:43;11.10;99.90
8593;DHT22;4334;49.982;8.398;2023-04-15T16:15:11;10.10;99.90
8593;DHT22;4334;49.982;8.398;2023-04-15T16:17:38;7.60;99.90